TimeCST,TemperatureF,Dew PointF,Humidity,Sea Level PressureIn,VisibilityMPH,Wind Direction,Wind SpeedMPH,Gust SpeedMPH,PrecipitationIn,Events,Conditions,WindDirDegrees,DateUTC
12:55 AM,32.0,26.1,79,30.31,10.0,NE,10.4,-,N/A,,Clear,50,2013-01-20 06:55:00
1:55 AM,28.0,21.9,78,30.31,10.0,NE,9.2,-,N/A,,Clear,50,2013-01-20 07:55:00
2:55 AM,26.1,15.1,63,30.32,10.0,ENE,4.6,-,N/A,,Clear,60,2013-01-20 08:55:00
3:55 AM,24.1,15.1,69,30.32,10.0,East,8.1,-,N/A,,Clear,80,2013-01-20 09:55:00
4:55 AM,23.0,12.9,65,30.31,10.0,East,6.9,-,N/A,,Clear,80,2013-01-20 10:55:00
5:55 AM,21.0,12.0,68,30.31,10.0,East,3.5,-,N/A,,Clear,90,2013-01-20 11:55:00
6:55 AM,19.4,12.2,74,30.26,10.0,East,5.8,-,N/A,,Clear,80,2013-01-20 12:55:00
7:55 AM,19.0,12.9,77,30.31,10.0,East,4.6,-,N/A,,Clear,80,2013-01-20 13:55:00
8:55 AM,21.0,15.1,78,30.33,10.0,ENE,8.1,-,N/A,,Clear,70,2013-01-20 14:55:00
9:55 AM,23.0,15.1,72,30.35,10.0,East,8.1,-,N/A,,Clear,80,2013-01-20 15:55:00
10:55 AM,25.0,15.1,66,30.38,10.0,Variable,4.6,-,N/A,,Clear,0,2013-01-20 16:55:00
11:55 AM,27.0,15.1,61,30.37,10.0,ENE,6.9,-,N/A,,Clear,60,2013-01-20 17:55:00
12:55 PM,30.0,14.0,51,30.35,10.0,NNE,9.2,-,N/A,,Clear,20,2013-01-20 18:55:00
1:55 PM,28.9,15.1,56,30.34,10.0,NNE,13.8,-,N/A,,Clear,20,2013-01-20 19:55:00
2:55 PM,30.2,12.2,47,30.30,10.0,NNE,12.7,-,N/A,,Clear,20,2013-01-20 20:55:00
3:55 PM,28.9,12.0,49,30.38,10.0,NNE,10.4,-,N/A,,Clear,30,2013-01-20 21:55:00
4:55 PM,27.0,10.0,49,30.39,10.0,NNE,9.2,-,N/A,,Clear,30,2013-01-20 22:55:00
5:55 PM,27.0,10.0,49,30.41,10.0,NNE,16.1,-,N/A,,Overcast,20,2013-01-20 23:55:00
6:55 PM,25.0,10.0,53,30.44,10.0,NNE,10.4,-,N/A,,Overcast,20,2013-01-21 00:55:00
7:55 PM,23.0,10.0,58,30.45,10.0,North,8.1,-,N/A,,Partly Cloudy,10,2013-01-21 01:55:00
8:55 PM,19.9,10.0,65,30.46,10.0,NNE,5.8,-,N/A,,Clear,20,2013-01-21 02:55:00
9:55 PM,19.0,10.0,68,30.46,10.0,NNE,5.8,-,N/A,,Clear,20,2013-01-21 03:55:00
10:55 PM,19.9,10.0,65,30.46,10.0,North,4.6,-,N/A,,Clear,10,2013-01-21 04:55:00
11:55 PM,18.0,10.0,71,30.49,10.0,WNW,4.6,-,N/A,,Clear,290,2013-01-21 05:55:00